createdAt,value
2019-01-08T00:00:59.027Z,89.28
2019-01-08T00:03:26.772Z,89.55
2019-01-08T00:05:54.579Z,90.08
2019-01-08T00:08:22.297Z,89.89
2019-01-08T00:10:50.065Z,88.50
2019-01-08T00:13:18.896Z,88.01
2019-01-08T00:15:47.479Z,87.50
2019-01-08T00:18:15.255Z,87.66
2019-01-08T00:20:43.013Z,87.01
2019-01-08T00:23:10.818Z,86.65
2019-01-08T00:25:38.527Z,86.40
2019-01-08T00:28:06.297Z,86.45
2019-01-08T00:30:34.011Z,86.37
2019-01-08T00:33:03.447Z,86.90
2019-01-08T00:35:31.170Z,87.10
2019-01-08T00:37:58.922Z,87.12
2019-01-08T00:40:26.640Z,88.01
2019-01-08T00:42:55.501Z,88.05
2019-01-08T00:45:23.264Z,86.98
2019-01-08T00:47:52.272Z,87.46
2019-01-08T00:50:20.216Z,86.74
2019-01-08T00:52:47.969Z,86.27
2019-01-08T00:55:15.728Z,86.58
2019-01-08T00:57:43.490Z,86.35
2019-01-08T01:00:11.723Z,86.09
2019-01-08T01:02:39.491Z,85.91
2019-01-08T01:05:07.341Z,86.40
2019-01-08T01:07:35.130Z,86.26
2019-01-08T01:10:03.061Z,86.73
2019-01-08T01:12:30.799Z,86.77
2019-01-08T01:14:58.592Z,86.68
2019-01-08T01:17:26.335Z,87.51
2019-01-08T01:19:54.356Z,86.99
2019-01-08T01:22:22.104Z,86.84
2019-01-08T01:24:49.879Z,87.04
2019-01-08T01:27:17.953Z,87.64
2019-01-08T01:29:45.689Z,87.94
2019-01-08T01:32:13.450Z,87.52
2019-01-08T01:34:41.820Z,87.85
2019-01-08T01:37:09.584Z,87.24
2019-01-08T01:39:38.142Z,86.49
2019-01-08T01:42:05.906Z,86.31
2019-01-08T01:44:33.697Z,86.86
2019-01-08T01:47:01.642Z,86.36
2019-01-08T01:49:29.545Z,85.91
2019-01-08T01:51:58.062Z,86.01
2019-01-08T01:54:26.883Z,86.60
2019-01-08T01:56:54.638Z,86.32
2019-01-08T01:59:22.431Z,87.14
2019-01-08T02:01:50.186Z,86.67
2019-01-08T02:04:17.985Z,86.87
2019-01-08T02:06:45.723Z,86.56
2019-01-08T02:09:13.496Z,86.36
2019-01-08T02:11:41.221Z,86.71
2019-01-08T02:14:10.570Z,86.06
2019-01-08T02:16:38.539Z,85.97
2019-01-08T02:19:06.318Z,86.13
2019-01-08T02:21:34.039Z,85.38
2019-01-08T02:24:03.683Z,85.27
2019-01-08T02:26:31.743Z,85.67
2019-01-08T02:28:59.771Z,85.50
2019-01-08T02:31:27.565Z,85.08
2019-01-08T02:33:56.465Z,84.78
2019-01-08T02:36:25.657Z,84.75
2019-01-08T02:38:53.736Z,85.26
2019-01-08T02:41:22.960Z,85.67
2019-01-08T02:43:51.021Z,84.90
2019-01-08T02:46:18.804Z,84.43
2019-01-08T02:48:46.611Z,84.21
2019-01-08T02:51:14.377Z,84.41
2019-01-08T02:53:43.797Z,84.53
2019-01-08T02:56:11.676Z,84.50
2019-01-08T02:58:41.756Z,84.74
2019-01-08T03:01:09.587Z,84.57
2019-01-08T03:03:37.326Z,83.91
2019-01-08T03:06:05.129Z,83.74
2019-01-08T03:08:32.906Z,83.40
2019-01-08T03:11:00.655Z,83.85
2019-01-08T03:13:30.320Z,83.87
2019-01-08T03:15:58.114Z,83.70
2019-01-08T03:18:25.869Z,83.79
2019-01-08T03:20:54.370Z,83.36
2019-01-08T03:23:22.369Z,82.99
2019-01-08T03:25:50.128Z,83.31
2019-01-08T03:28:17.906Z,83.43
2019-01-08T03:30:45.771Z,83.36
2019-01-08T03:33:13.494Z,82.86
2019-01-08T03:35:41.454Z,83.25
2019-01-08T03:38:09.236Z,83.63
2019-01-08T03:40:37.112Z,83.64
2019-01-08T03:43:04.876Z,83.06
2019-01-08T03:45:32.894Z,83.25
2019-01-08T03:48:00.674Z,83.49
2019-01-08T03:50:28.406Z,83.28
2019-01-08T03:52:56.482Z,83.61
2019-01-08T03:55:24.226Z,84.09
2019-01-08T03:57:53.296Z,84.04
2019-01-08T04:00:21.051Z,84.18
2019-01-08T04:02:48.814Z,84.13
2019-01-08T04:05:18.780Z,84.12
2019-01-08T04:07:46.817Z,84.54
2019-01-08T04:10:14.568Z,84.63
2019-01-08T04:12:42.324Z,84.45
2019-01-08T04:15:10.264Z,84.63
2019-01-08T04:17:38.034Z,85.06
2019-01-08T04:20:05.750Z,85.45
2019-01-08T04:22:33.517Z,85.99
2019-01-08T04:25:01.236Z,86.46
2019-01-08T04:27:29.266Z,85.96
2019-01-08T04:29:57.089Z,85.75
2019-01-08T04:32:25.035Z,85.08
2019-01-08T04:34:52.864Z,84.85
2019-01-08T04:37:20.679Z,84.77
2019-01-08T04:39:48.447Z,84.53
2019-01-08T04:42:16.239Z,84.45
2019-01-08T04:44:43.971Z,84.52
2019-01-08T04:47:11.757Z,84.21
2019-01-08T04:49:39.497Z,84.38
2019-01-08T04:52:07.279Z,84.69
2019-01-08T04:54:35.181Z,84.33
2019-01-08T04:57:02.911Z,84.59
2019-01-08T04:59:30.735Z,84.77
2019-01-08T05:01:58.452Z,84.30
2019-01-08T05:04:26.205Z,84.06
2019-01-08T05:06:54.290Z,84.74
2019-01-08T05:09:22.068Z,85.33
2019-01-08T05:11:51.232Z,85.12
2019-01-08T05:14:19.018Z,85.49
2019-01-08T05:16:46.973Z,85.34
2019-01-08T05:19:15.054Z,85.74
2019-01-08T05:21:43.078Z,86.01
2019-01-08T05:24:11.076Z,86.32
2019-01-08T05:26:38.865Z,85.81
2019-01-08T05:29:06.624Z,85.47
2019-01-08T05:31:34.374Z,85.33
2019-01-08T05:34:02.354Z,85.06
2019-01-08T05:36:30.104Z,83.93
2019-01-08T05:38:59.099Z,84.26
2019-01-08T05:41:26.875Z,84.13
2019-01-08T05:43:54.655Z,83.86
2019-01-08T05:46:22.366Z,83.11
2019-01-08T05:48:50.148Z,83.29
2019-01-08T05:51:18.030Z,83.95
2019-01-08T05:53:46.144Z,84.29
2019-01-08T05:56:13.906Z,84.57
2019-01-08T05:58:41.714Z,84.17
2019-01-08T06:01:10.732Z,82.59
2019-01-08T06:03:38.503Z,82.67
2019-01-08T06:06:06.270Z,82.75
2019-01-08T06:08:36.008Z,82.43
2019-01-08T06:11:03.778Z,82.71
2019-01-08T06:13:31.535Z,82.43
2019-01-08T06:15:59.301Z,81.14
2019-01-08T06:18:27.094Z,80.21
2019-01-08T06:20:54.890Z,80.91
2019-01-08T06:23:22.640Z,79.96
2019-01-08T06:25:50.408Z,79.55
2019-01-08T06:28:18.148Z,79.72
2019-01-08T06:30:45.923Z,79.61
2019-01-08T06:33:13.709Z,78.98
2019-01-08T06:35:41.499Z,78.41
2019-01-08T06:38:10.047Z,78.48
2019-01-08T06:40:37.879Z,78.71
2019-01-08T06:43:06.425Z,78.50
2019-01-08T06:45:34.172Z,79.24
2019-01-08T06:48:01.913Z,79.33
2019-01-08T06:50:29.885Z,80.30
2019-01-08T06:52:57.649Z,80.73
2019-01-08T06:55:25.413Z,80.82
2019-01-08T06:57:55.639Z,81.03
2019-01-08T07:00:23.478Z,80.88
2019-01-08T07:02:51.219Z,80.59
2019-01-08T07:05:19.026Z,81.02
2019-01-08T07:07:47.819Z,81.02
2019-01-08T07:10:15.631Z,81.09
2019-01-08T07:12:43.420Z,81.07
2019-01-08T07:15:11.142Z,81.29
2019-01-08T07:17:38.916Z,81.05
2019-01-08T07:20:07.422Z,80.71
2019-01-08T07:22:35.182Z,80.24
2019-01-08T07:25:03.044Z,79.73
2019-01-08T07:27:30.798Z,79.62
2019-01-08T07:29:58.568Z,79.48
2019-01-08T07:32:27.512Z,79.60
2019-01-08T07:34:55.238Z,78.99
2019-01-08T07:37:22.990Z,79.11
2019-01-08T07:39:51.300Z,78.99
2019-01-08T07:42:19.256Z,79.40
2019-01-08T07:44:47.024Z,79.43
2019-01-08T07:47:14.775Z,79.21
2019-01-08T07:49:42.818Z,79.81
2019-01-08T07:52:11.004Z,79.56
2019-01-08T07:54:38.821Z,79.99
2019-01-08T07:57:06.742Z,80.11
2019-01-08T07:59:34.525Z,80.08
2019-01-08T08:02:02.752Z,79.34
2019-01-08T08:04:30.515Z,79.69
2019-01-08T08:06:58.461Z,79.35
2019-01-08T08:09:28.083Z,79.15
2019-01-08T08:11:56.649Z,78.51
2019-01-08T08:14:24.901Z,78.57
2019-01-08T08:16:53.217Z,78.79
2019-01-08T08:19:25.349Z,77.88
2019-01-08T08:21:53.887Z,77.52
2019-01-08T08:24:21.616Z,77.73
2019-01-08T08:26:49.643Z,78.33
2019-01-08T08:29:17.383Z,78.47
2019-01-08T08:31:47.495Z,78.19
2019-01-08T08:34:15.242Z,78.18
2019-01-08T08:36:44.114Z,78.23
2019-01-08T08:39:12.479Z,77.50
2019-01-08T08:41:42.501Z,77.54
2019-01-08T08:44:10.553Z,77.76
2019-01-08T08:46:38.359Z,77.20
2019-01-08T08:49:06.149Z,77.75
2019-01-08T08:51:35.157Z,77.30
2019-01-08T08:54:02.939Z,78.42
2019-01-08T08:56:30.701Z,79.54
2019-01-08T08:58:58.471Z,80.26
2019-01-08T09:01:26.192Z,80.19
2019-01-08T09:03:53.970Z,79.72
2019-01-08T09:06:21.749Z,79.54
2019-01-08T09:08:49.495Z,78.95
2019-01-08T09:11:17.287Z,78.50
2019-01-08T09:13:45.069Z,78.21
2019-01-08T09:16:12.842Z,77.44
2019-01-08T09:18:40.659Z,76.72
2019-01-08T09:21:08.462Z,76.21
2019-01-08T09:23:37.740Z,75.21
2019-01-08T09:26:05.488Z,74.68
2019-01-08T09:28:33.272Z,74.82
2019-01-08T09:31:01.028Z,75.02
2019-01-08T09:33:28.783Z,75.66
2019-01-08T09:35:56.885Z,75.70
2019-01-08T09:38:24.932Z,75.45
2019-01-08T09:40:52.671Z,75.73
2019-01-08T09:43:20.436Z,75.75
2019-01-08T09:45:49.282Z,76.25
2019-01-08T09:48:17.047Z,77.43
2019-01-08T09:50:44.815Z,78.38
2019-01-08T09:53:12.575Z,79.40
2019-01-08T09:55:40.353Z,80.13
2019-01-08T09:58:08.428Z,79.67
2019-01-08T10:00:36.195Z,79.11
2019-01-08T10:03:03.973Z,78.82
2019-01-08T10:05:31.805Z,78.51
2019-01-08T10:07:59.560Z,78.44
2019-01-08T10:10:27.345Z,77.75
2019-01-08T10:12:55.115Z,77.18
2019-01-08T10:15:22.984Z,76.95
2019-01-08T10:17:50.736Z,76.81
2019-01-08T10:20:18.534Z,77.15
2019-01-08T10:22:46.300Z,77.19
2019-01-08T10:25:14.190Z,77.50
2019-01-08T10:27:41.941Z,77.23
2019-01-08T10:30:10.206Z,77.29
2019-01-08T10:32:38.019Z,76.28
2019-01-08T10:35:06.374Z,76.10
2019-01-08T10:37:34.154Z,76.00
2019-01-08T10:40:01.978Z,75.21
2019-01-08T10:42:29.737Z,74.88
2019-01-08T10:44:57.551Z,75.17
2019-01-08T10:47:25.324Z,75.31
2019-01-08T10:49:53.120Z,73.51
2019-01-08T10:52:20.876Z,73.17
2019-01-08T10:54:48.674Z,72.20
2019-01-08T10:57:16.508Z,72.12
2019-01-08T10:59:44.284Z,72.37
2019-01-08T11:02:12.393Z,73.07
2019-01-08T11:04:40.182Z,74.62
2019-01-08T11:07:08.036Z,75.09
2019-01-08T11:09:35.826Z,75.94
2019-01-08T11:12:03.636Z,76.35
2019-01-08T11:14:31.372Z,77.17
2019-01-08T11:16:59.300Z,77.47
2019-01-08T11:19:27.060Z,78.64
2019-01-08T11:21:54.819Z,79.61
2019-01-08T11:24:22.551Z,80.61
2019-01-08T11:26:50.426Z,80.67
2019-01-08T11:29:18.202Z,80.62
2019-01-08T11:31:48.903Z,80.87
2019-01-08T11:34:15.648Z,81.17
2019-01-08T11:36:43.457Z,81.98
2019-01-08T11:39:11.225Z,82.58
2019-01-08T11:41:39.008Z,82.75
2019-01-08T11:44:06.812Z,81.80
2019-01-08T11:46:34.684Z,81.91
2019-01-08T11:49:02.773Z,81.45
2019-01-08T11:51:30.693Z,82.03
2019-01-08T11:53:58.462Z,81.70
2019-01-08T11:56:26.253Z,80.81
2019-01-08T11:58:53.995Z,80.32
2019-01-08T12:01:24.039Z,79.31
2019-01-08T12:03:52.157Z,79.02
2019-01-08T12:06:22.207Z,79.80
2019-01-08T12:08:49.933Z,79.00
2019-01-08T12:11:17.734Z,78.87
2019-01-08T12:13:45.503Z,78.75
2019-01-08T12:16:13.283Z,78.86
2019-01-08T12:18:41.078Z,78.07
2019-01-08T12:21:08.891Z,77.79
2019-01-08T12:23:36.773Z,77.76
2019-01-08T12:26:04.526Z,76.95
2019-01-08T12:28:32.325Z,76.80
2019-01-08T12:31:00.109Z,76.20
2019-01-08T12:33:27.926Z,76.62
2019-01-08T12:35:55.699Z,77.20
2019-01-08T12:38:23.486Z,76.77
2019-01-08T12:40:51.288Z,77.04
2019-01-08T12:43:20.149Z,76.11
2019-01-08T12:45:50.110Z,76.18
2019-01-08T12:48:17.893Z,75.72
2019-01-08T12:50:45.666Z,75.72
2019-01-08T12:53:13.444Z,75.72
2019-01-08T12:55:41.508Z,75.96
2019-01-08T12:58:09.288Z,75.74
2019-01-08T13:00:37.182Z,75.68
2019-01-08T13:03:05.030Z,75.66
2019-01-08T13:05:32.820Z,75.48
2019-01-08T13:08:00.620Z,74.73
2019-01-08T13:10:28.396Z,74.93
2019-01-08T13:12:56.156Z,74.74
2019-01-08T13:15:23.989Z,76.08
2019-01-08T13:17:51.781Z,75.91
2019-01-08T13:20:21.081Z,75.89
2019-01-08T13:22:48.908Z,75.70
2019-01-08T13:25:16.689Z,75.22
2019-01-08T13:27:44.462Z,74.74
2019-01-08T13:30:12.215Z,75.50
2019-01-08T13:32:40.748Z,75.62
2019-01-08T13:35:08.602Z,75.39
2019-01-08T13:37:36.364Z,76.08
2019-01-08T13:40:04.286Z,77.79
2019-01-08T13:42:32.078Z,77.84
2019-01-08T13:44:59.884Z,79.68
2019-01-08T13:47:27.680Z,80.30
2019-01-08T13:49:55.458Z,82.16
2019-01-08T13:52:23.234Z,82.74
2019-01-08T13:54:51.030Z,82.67
2019-01-08T13:57:21.356Z,84.00
2019-01-08T13:59:49.186Z,83.74
2019-01-08T14:02:16.984Z,83.50
2019-01-08T14:04:44.784Z,83.86
2019-01-08T14:07:13.193Z,84.49
2019-01-08T14:09:41.018Z,84.11
2019-01-08T14:12:08.766Z,84.27
2019-01-08T14:14:36.547Z,84.43
2019-01-08T14:17:04.311Z,84.26
2019-01-08T14:19:32.120Z,85.34
2019-01-08T14:21:59.886Z,84.89
2019-01-08T14:24:27.765Z,84.03
2019-01-08T14:26:55.564Z,84.27
2019-01-08T14:29:23.309Z,84.21
2019-01-08T14:31:51.099Z,84.38
2019-01-08T14:34:18.906Z,84.34
2019-01-08T14:36:46.652Z,84.83
2019-01-08T14:39:14.426Z,82.62
2019-01-08T14:41:42.185Z,81.05
2019-01-08T14:44:10.215Z,80.19
2019-01-08T14:46:38.349Z,79.59
2019-01-08T14:49:06.075Z,78.97
2019-01-08T14:51:33.853Z,78.93
2019-01-08T14:54:01.592Z,78.68
2019-01-08T14:56:29.417Z,77.89
2019-01-08T14:58:57.173Z,78.05
2019-01-08T15:01:24.961Z,78.70
2019-01-08T15:03:52.781Z,77.82
2019-01-08T15:06:20.638Z,77.23
2019-01-08T15:08:48.403Z,77.17
2019-01-08T15:11:16.200Z,76.75
2019-01-08T15:13:43.970Z,76.29
2019-01-08T15:16:11.777Z,76.21
2019-01-08T15:18:39.517Z,75.50
2019-01-08T15:21:07.341Z,74.83
2019-01-08T15:23:35.078Z,75.19
2019-01-08T15:26:02.905Z,74.91
2019-01-08T15:28:30.700Z,75.00
2019-01-08T15:30:58.503Z,74.36
2019-01-08T15:33:26.250Z,75.37
2019-01-08T15:35:54.082Z,75.52
2019-01-08T15:38:21.945Z,76.35
2019-01-08T15:40:49.779Z,75.72
2019-01-08T15:43:17.532Z,76.25
2019-01-08T15:45:45.288Z,75.89
2019-01-08T15:48:13.060Z,76.62
2019-01-08T15:50:40.800Z,77.50
2019-01-08T15:53:08.845Z,76.88
2019-01-08T15:55:36.632Z,76.13
2019-01-08T15:58:04.548Z,75.48
2019-01-08T16:00:32.283Z,75.11
2019-01-08T16:03:07.223Z,74.57
2019-01-08T16:05:29.740Z,74.25
2019-01-08T16:07:57.514Z,74.36
2019-01-08T16:10:25.333Z,74.64
2019-01-08T16:12:53.173Z,74.39
2019-01-08T16:15:20.895Z,73.99
2019-01-08T16:17:48.648Z,72.95
2019-01-08T16:20:16.709Z,72.80
2019-01-08T16:22:44.546Z,72.91
2019-01-08T16:25:12.363Z,71.41
2019-01-08T16:27:40.119Z,70.86
2019-01-08T16:30:07.947Z,71.66
2019-01-08T16:32:35.730Z,71.40
2019-01-08T16:35:03.911Z,71.25
2019-01-08T16:37:31.749Z,71.61
2019-01-08T16:39:59.587Z,72.07
2019-01-08T16:42:27.389Z,73.23
2019-01-08T16:44:55.129Z,74.03
2019-01-08T16:47:23.105Z,74.84
2019-01-08T16:49:50.872Z,75.54
2019-01-08T16:52:18.651Z,74.70
2019-01-08T16:55:01.856Z,75.07
2019-01-08T16:57:29.737Z,75.66
2019-01-08T16:59:57.514Z,75.71
2019-01-08T17:02:25.423Z,75.29
2019-01-08T17:04:53.207Z,75.08
2019-01-08T17:07:21.012Z,74.58
2019-01-08T17:09:48.826Z,74.61
2019-01-08T17:12:16.611Z,74.35
2019-01-08T17:15:10.514Z,75.80
2019-01-08T17:17:38.366Z,77.06
2019-01-08T17:20:07.062Z,77.02
2019-01-08T17:22:34.846Z,78.30
2019-01-08T17:25:03.339Z,78.28
2019-01-08T17:27:51.967Z,78.11
2019-01-08T17:30:19.730Z,78.47
2019-01-08T17:32:47.500Z,77.90
2019-01-08T17:35:15.329Z,78.89
2019-01-08T17:37:43.316Z,79.07
2019-01-08T17:40:11.102Z,78.71
2019-01-08T17:42:40.001Z,78.62
2019-01-08T17:45:35.341Z,78.67
2019-01-08T17:48:13.046Z,78.25
2019-01-08T17:50:41.294Z,79.58
2019-01-08T17:53:09.027Z,78.56
2019-01-08T17:55:38.852Z,79.47
2019-01-08T17:58:41.285Z,79.37
2019-01-08T18:01:25.284Z,80.46
2019-01-08T18:03:53.122Z,80.68
2019-01-08T18:06:20.936Z,80.13
2019-01-08T18:08:48.963Z,79.42
2019-01-08T18:11:16.768Z,78.96
2019-01-08T18:13:44.699Z,78.07
2019-01-08T18:16:12.448Z,77.76
2019-01-08T18:18:40.244Z,77.93
2019-01-08T18:21:08.005Z,77.41
2019-01-08T18:23:35.805Z,76.28
2019-01-08T18:26:03.572Z,75.57
2019-01-08T18:28:32.569Z,75.35
2019-01-08T18:31:00.613Z,75.15
2019-01-08T18:33:28.342Z,75.45
2019-01-08T18:35:56.183Z,74.55
2019-01-08T18:38:23.945Z,74.36
2019-01-08T18:40:51.743Z,73.91
2019-01-08T18:43:19.744Z,73.90
2019-01-08T18:45:47.891Z,73.87
2019-01-08T18:48:15.647Z,73.68
2019-01-08T18:50:43.461Z,74.50
2019-01-08T18:53:11.211Z,75.04
2019-01-08T18:55:39.074Z,75.71
2019-01-08T18:58:07.161Z,76.11
2019-01-08T19:00:34.933Z,76.48
2019-01-08T19:03:02.725Z,76.95
2019-01-08T19:05:30.565Z,77.69
2019-01-08T19:07:58.417Z,78.03
2019-01-08T19:10:26.279Z,77.78
2019-01-08T19:12:54.038Z,77.93
2019-01-08T19:15:21.890Z,78.56
2019-01-08T19:17:49.851Z,78.57
2019-01-08T19:20:17.617Z,78.61
2019-01-08T19:22:45.414Z,78.73
2019-01-08T19:25:13.619Z,79.39
2019-01-08T19:27:41.419Z,82.27
2019-01-08T19:30:09.741Z,84.31
2019-01-08T19:32:37.502Z,86.25
2019-01-08T19:35:05.263Z,85.92
2019-01-08T19:37:33.033Z,86.65
2019-01-08T19:40:00.808Z,86.96
2019-01-08T19:42:28.890Z,87.89
2019-01-08T19:44:56.681Z,88.08
2019-01-08T19:47:24.461Z,88.31
2019-01-08T19:49:52.223Z,87.75
2019-01-08T19:52:20.219Z,86.60
2019-01-08T19:54:47.975Z,85.38
2019-01-08T19:57:15.747Z,84.39
2019-01-08T19:59:43.525Z,84.52
2019-01-08T20:02:11.287Z,85.57
2019-01-08T20:04:39.070Z,86.23
2019-01-08T20:07:06.888Z,85.71
2019-01-08T20:09:34.652Z,84.91
2019-01-08T20:12:02.422Z,85.15
2019-01-08T20:14:31.592Z,85.04
2019-01-08T20:16:59.382Z,85.66
2019-01-08T20:19:27.661Z,85.64
2019-01-08T20:21:55.447Z,85.26
2019-01-08T20:24:23.422Z,85.73
2019-01-08T20:26:51.177Z,84.38
2019-01-08T20:29:18.923Z,85.13
2019-01-08T20:31:47.037Z,85.30
2019-01-08T20:34:14.807Z,84.90
2019-01-08T20:36:42.569Z,83.60
2019-01-08T20:39:14.381Z,82.44
2019-01-08T20:41:42.510Z,82.80
2019-01-08T20:44:10.267Z,82.19
2019-01-08T20:46:38.055Z,81.37
2019-01-08T20:49:05.893Z,81.01
2019-01-08T20:51:33.655Z,81.45
2019-01-08T20:54:01.402Z,80.99
2019-01-08T20:56:29.217Z,81.05
2019-01-08T20:58:57.001Z,81.11
2019-01-08T21:01:24.765Z,80.24
2019-01-08T21:03:52.561Z,79.71
2019-01-08T21:06:20.397Z,78.30
2019-01-08T21:08:48.194Z,78.99
2019-01-08T21:11:15.960Z,77.57
2019-01-08T21:13:43.740Z,77.71
2019-01-08T21:16:11.492Z,77.74
2019-01-08T21:18:40.664Z,77.31
2019-01-08T21:21:08.587Z,76.80
2019-01-08T21:23:36.458Z,77.18
2019-01-08T21:26:04.211Z,76.67
2019-01-08T21:28:31.984Z,77.03
2019-01-08T21:30:59.772Z,77.54
2019-01-08T21:33:27.558Z,76.78
2019-01-08T21:35:55.354Z,76.96
2019-01-08T21:38:23.278Z,77.02
2019-01-08T21:40:51.048Z,77.43
2019-01-08T21:43:18.841Z,78.71
2019-01-08T21:45:46.751Z,78.16
2019-01-08T21:48:14.759Z,78.85
2019-01-08T21:50:42.473Z,78.74
2019-01-08T21:53:10.630Z,78.68
2019-01-08T21:55:38.392Z,79.06
2019-01-08T21:58:06.079Z,80.52
2019-01-08T22:00:33.867Z,80.39
2019-01-08T22:03:01.639Z,80.47
2019-01-08T22:05:29.415Z,81.61
2019-01-08T22:07:57.176Z,81.48
2019-01-08T22:10:26.252Z,80.52
2019-01-08T22:12:54.005Z,80.79
2019-01-08T22:15:21.759Z,80.82
2019-01-08T22:17:49.492Z,81.17
2019-01-08T22:20:17.483Z,81.12
2019-01-08T22:22:52.534Z,82.19
2019-01-08T22:25:14.993Z,82.48
2019-01-08T22:27:42.759Z,81.96
2019-01-08T22:30:10.829Z,82.47
2019-01-08T22:32:38.564Z,82.61
2019-01-08T22:35:06.729Z,84.19
2019-01-08T22:37:34.487Z,85.23
2019-01-08T22:40:02.232Z,86.45
2019-01-08T22:42:30.105Z,86.90
2019-01-08T22:44:58.011Z,86.33
2019-01-08T22:47:25.743Z,86.66
2019-01-08T22:49:53.509Z,85.21
2019-01-08T22:52:21.291Z,85.11
2019-01-08T22:54:49.059Z,84.87
2019-01-08T22:57:16.801Z,85.45
2019-01-08T22:59:44.665Z,84.98
2019-01-08T23:02:13.741Z,85.40
2019-01-08T23:04:41.509Z,85.47
2019-01-08T23:07:09.300Z,85.90
2019-01-08T23:09:37.192Z,86.54
2019-01-08T23:12:05.231Z,86.20
2019-01-08T23:14:33.029Z,85.87
2019-01-08T23:17:00.937Z,86.40
2019-01-08T23:19:28.711Z,86.45
2019-01-08T23:21:56.610Z,86.66
2019-01-08T23:24:24.360Z,85.78
2019-01-08T23:26:52.250Z,85.72
2019-01-08T23:29:20.239Z,86.29
2019-01-08T23:31:50.329Z,86.05
2019-01-08T23:34:18.102Z,85.49
2019-01-08T23:36:46.029Z,85.37
2019-01-08T23:39:13.764Z,85.88
2019-01-08T23:41:41.986Z,85.91
2019-01-08T23:44:09.756Z,86.13
2019-01-08T23:46:37.678Z,86.13
2019-01-08T23:49:05.383Z,86.01
2019-01-08T23:51:33.386Z,87.02
2019-01-08T23:54:02.440Z,86.84
2019-01-08T23:56:35.078Z,86.86
2019-01-08T23:59:02.849Z,86.04
